sensor_id;sensor_type;location;lat;lon;timestamp;temperature;humidity
9466;DHT22;4771;48.726;9.006;2024-03-06T00:01:08;6.80;99.90
9466;DHT22;4771;48.726;9.006;2024-03-06T00:03:36;6.70;99.90
9466;DHT22;4771;48.726;9.006;2024-03-06T00:06:03;6.70;99.90
9466;DHT22;4771;48.726;9.006;2024-03-06T00:08:30;6.80;99.90
9466;DHT22;4771;48.726;9.006;2024-03-06T00:10:57;6.90;99.90
9466;DHT22;4771;48.726;9.006;2024-03-06T00:13:24;6.90;99.90
9466;DHT22;4771;48.726;9.006;2024-03-06T00:15:50;6.80;99.90
9466;DHT22;4771;48.726;9.006;2024-03-06T00:18:17;6.90;99.90
9466;DHT22;4771;48.726;9.006;2024-03-06T00:20:45;6.80;99.90
9466;DHT22;4771;48.726;9.006;2024-03-06T00:23:12;6.90;99.90
9466;DHT22;4771;48.726;9.006;2024-03-06T00:25:39;6.70;99.90
9466;DHT22;4771;48.726;9.006;2024-03-06T00:28:06;6.70;99.90
9466;DHT22;4771;48.726;9.006;2024-03-06T00:30:33;6.70;99.90
9466;DHT22;4771;48.726;9.006;2024-03-06T00:33:00;6.80;99.90
9466;DHT22;4771;48.726;9.006;2024-03-06T00:35:26;6.80;99.90
9466;DHT22;4771;48.726;9.006;2024-03-06T00:37:55;6.80;99.90
9466;DHT22;4771;48.726;9.006;2024-03-06T00:40:22;6.80;99.90
9466;DHT22;4771;48.726;9.006;2024-03-06T00:42:49;6.90;99.90
9466;DHT22;4771;48.726;9.006;2024-03-06T00:45:16;6.90;99.90
9466;DHT22;4771;48.726;9.006;2024-03-06T00:47:43;6.90;99.90
9466;DHT22;4771;48.726;9.006;2024-03-06T00:50:09;7.00;99.90
9466;DHT22;4771;48.726;9.006;2024-03-06T00:52:37;7.00;99.90
9466;DHT22;4771;48.726;9.006;2024-03-06T00:55:05;7.00;99.90
9466;DHT22;4771;48.726;9.006;2024-03-06T00:57:32;7.00;99.90
9466;DHT22;4771;48.726;9.006;2024-03-06T00:59:59;7.00;99.90
9466;DHT22;4771;48.726;9.006;2024-03-06T01:02:26;7.00;99.90
9466;DHT22;4771;48.726;9.006;2024-03-06T01:04:53;7.00;99.90
9466;DHT22;4771;48.726;9.006;2024-03-06T01:07:22;6.90;99.90
9466;DHT22;4771;48.726;9.006;2024-03-06T01:09:48;6.90;99.90
9466;DHT22;4771;48.726;9.006;2024-03-06T01:12:17;6.90;99.90
9466;DHT22;4771;48.726;9.006;2024-03-06T01:14:43;6.90;99.90
9466;DHT22;4771;48.726;9.006;2024-03-06T01:17:10;6.80;99.90
9466;DHT22;4771;48.726;9.006;2024-03-06T01:19:37;6.80;99.90
9466;DHT22;4771;48.726;9.006;2024-03-06T01:22:04;6.80;99.90
9466;DHT22;4771;48.726;9.006;2024-03-06T01:24:32;6.80;99.90
9466;DHT22;4771;48.726;9.006;2024-03-06T01:26:59;6.70;99.90
9466;DHT22;4771;48.726;9.006;2024-03-06T01:29:29;6.70;99.90
9466;DHT22;4771;48.726;9.006;2024-03-06T01:31:56;6.70;99.90
9466;DHT22;4771;48.726;9.006;2024-03-06T01:34:23;6.70;99.90
9466;DHT22;4771;48.726;9.006;2024-03-06T01:36:50;6.70;99.90
9466;DHT22;4771;48.726;9.006;2024-03-06T01:39:17;6.70;99.90
9466;DHT22;4771;48.726;9.006;2024-03-06T01:41:47;6.70;99.90
9466;DHT22;4771;48.726;9.006;2024-03-06T01:44:14;6.70;99.90
9466;DHT22;4771;48.726;9.006;2024-03-06T01:46:43;6.70;99.90
9466;DHT22;4771;48.726;9.006;2024-03-06T01:49:11;6.70;99.90
9466;DHT22;4771;48.726;9.006;2024-03-06T01:51:39;6.70;99.90
9466;DHT22;4771;48.726;9.006;2024-03-06T01:54:07;6.70;99.90
9466;DHT22;4771;48.726;9.006;2024-03-06T01:56:35;6.70;99.90
9466;DHT22;4771;48.726;9.006;2024-03-06T01:59:04;6.70;99.90
9466;DHT22;4771;48.726;9.006;2024-03-06T02:01:31;6.70;99.90
9466;DHT22;4771;48.726;9.006;2024-03-06T02:04:00;6.70;99.90
9466;DHT22;4771;48.726;9.006;2024-03-06T02:06:27;6.70;99.90
9466;DHT22;4771;48.726;9.006;2024-03-06T02:08:54;6.60;99.90
9466;DHT22;4771;48.726;9.006;2024-03-06T02:11:21;6.60;99.90
9466;DHT22;4771;48.726;9.006;2024-03-06T02:13:49;6.60;99.90
9466;DHT22;4771;48.726;9.006;2024-03-06T02:16:16;6.60;99.90
9466;DHT22;4771;48.726;9.006;2024-03-06T02:18:51;6.60;99.90
9466;DHT22;4771;48.726;9.006;2024-03-06T02:21:21;6.60;99.90
9466;DHT22;4771;48.726;9.006;2024-03-06T02:23:49;6.70;99.90
9466;DHT22;4771;48.726;9.006;2024-03-06T02:26:16;6.70;99.90
9466;DHT22;4771;48.726;9.006;2024-03-06T02:28:47;6.70;99.90
9466;DHT22;4771;48.726;9.006;2024-03-06T02:31:15;6.70;99.90
9466;DHT22;4771;48.726;9.006;2024-03-06T02:33:42;6.70;99.90
9466;DHT22;4771;48.726;9.006;2024-03-06T02:36:09;6.70;99.90
9466;DHT22;4771;48.726;9.006;2024-03-06T02:38:38;6.80;99.90
9466;DHT22;4771;48.726;9.006;2024-03-06T02:41:05;6.70;99.90
9466;DHT22;4771;48.726;9.006;2024-03-06T02:43:32;6.70;99.90
9466;DHT22;4771;48.726;9.006;2024-03-06T02:45:59;6.80;99.90
9466;DHT22;4771;48.726;9.006;2024-03-06T02:48:26;6.80;99.90
9466;DHT22;4771;48.726;9.006;2024-03-06T02:50:53;6.80;99.90
9466;DHT22;4771;48.726;9.006;2024-03-06T02:53:20;6.80;99.90
9466;DHT22;4771;48.726;9.006;2024-03-06T02:55:48;6.90;99.90
9466;DHT22;4771;48.726;9.006;2024-03-06T02:58:15;6.90;99.90
9466;DHT22;4771;48.726;9.006;2024-03-06T03:00:43;6.90;99.90
9466;DHT22;4771;48.726;9.006;2024-03-06T03:03:10;6.90;99.90
9466;DHT22;4771;48.726;9.006;2024-03-06T03:05:37;6.90;99.90
9466;DHT22;4771;48.726;9.006;2024-03-06T03:08:05;6.90;99.90
9466;DHT22;4771;48.726;9.006;2024-03-06T03:10:32;6.90;99.90
9466;DHT22;4771;48.726;9.006;2024-03-06T03:13:01;7.00;99.90
9466;DHT22;4771;48.726;9.006;2024-03-06T03:15:30;7.00;99.90
9466;DHT22;4771;48.726;9.006;2024-03-06T03:17:58;7.00;99.90
9466;DHT22;4771;48.726;9.006;2024-03-06T03:20:25;7.10;99.90
9466;DHT22;4771;48.726;9.006;2024-03-06T03:22:52;7.10;99.90
9466;DHT22;4771;48.726;9.006;2024-03-06T03:25:18;7.20;99.90
9466;DHT22;4771;48.726;9.006;2024-03-06T03:27:47;7.10;99.90
9466;DHT22;4771;48.726;9.006;2024-03-06T03:30:16;7.20;99.90
9466;DHT22;4771;48.726;9.006;2024-03-06T03:32:47;7.20;99.90
9466;DHT22;4771;48.726;9.006;2024-03-06T03:35:13;7.20;99.90
9466;DHT22;4771;48.726;9.006;2024-03-06T03:37:42;7.20;99.90
9466;DHT22;4771;48.726;9.006;2024-03-06T03:40:09;7.20;99.90
9466;DHT22;4771;48.726;9.006;2024-03-06T03:42:37;7.20;99.90
9466;DHT22;4771;48.726;9.006;2024-03-06T03:45:05;7.20;99.90
9466;DHT22;4771;48.726;9.006;2024-03-06T03:47:33;7.20;99.90
9466;DHT22;4771;48.726;9.006;2024-03-06T03:50:00;7.20;99.90
9466;DHT22;4771;48.726;9.006;2024-03-06T03:52:27;7.20;99.90
9466;DHT22;4771;48.726;9.006;2024-03-06T03:54:54;7.20;99.90
9466;DHT22;4771;48.726;9.006;2024-03-06T03:57:20;7.20;99.90
9466;DHT22;4771;48.726;9.006;2024-03-06T03:59:47;7.20;99.90
9466;DHT22;4771;48.726;9.006;2024-03-06T04:02:14;7.20;99.90
9466;DHT22;4771;48.726;9.006;2024-03-06T04:04:42;7.30;99.90
9466;DHT22;4771;48.726;9.006;2024-03-06T04:07:09;7.20;99.90
9466;DHT22;4771;48.726;9.006;2024-03-06T04:09:36;7.30;99.90
9466;DHT22;4771;48.726;9.006;2024-03-06T04:12:04;7.30;99.90
9466;DHT22;4771;48.726;9.006;2024-03-06T04:14:31;7.30;99.90
9466;DHT22;4771;48.726;9.006;2024-03-06T04:16:58;7.30;99.90
9466;DHT22;4771;48.726;9.006;2024-03-06T04:19:25;7.30;99.90
9466;DHT22;4771;48.726;9.006;2024-03-06T04:21:53;7.40;99.90
9466;DHT22;4771;48.726;9.006;2024-03-06T04:24:20;7.30;99.90
9466;DHT22;4771;48.726;9.006;2024-03-06T04:26:47;7.30;99.90
9466;DHT22;4771;48.726;9.006;2024-03-06T04:29:13;7.30;99.90
9466;DHT22;4771;48.726;9.006;2024-03-06T04:31:41;7.30;99.90
9466;DHT22;4771;48.726;9.006;2024-03-06T04:34:08;7.40;99.90
9466;DHT22;4771;48.726;9.006;2024-03-06T04:36:35;7.40;99.90
9466;DHT22;4771;48.726;9.006;2024-03-06T04:39:03;7.30;99.90
9466;DHT22;4771;48.726;9.006;2024-03-06T04:41:32;7.40;99.90
9466;DHT22;4771;48.726;9.006;2024-03-06T04:43:59;7.40;99.90
9466;DHT22;4771;48.726;9.006;2024-03-06T04:46:26;7.40;99.90
9466;DHT22;4771;48.726;9.006;2024-03-06T04:48:53;7.40;99.90
9466;DHT22;4771;48.726;9.006;2024-03-06T04:51:20;7.40;99.90
9466;DHT22;4771;48.726;9.006;2024-03-06T04:53:47;7.40;99.90
9466;DHT22;4771;48.726;9.006;2024-03-06T04:56:16;7.40;99.90
9466;DHT22;4771;48.726;9.006;2024-03-06T04:58:44;7.40;99.90
9466;DHT22;4771;48.726;9.006;2024-03-06T05:01:11;7.30;99.90
9466;DHT22;4771;48.726;9.006;2024-03-06T05:03:38;7.30;99.90
9466;DHT22;4771;48.726;9.006;2024-03-06T05:06:06;7.40;99.90
9466;DHT22;4771;48.726;9.006;2024-03-06T05:08:32;7.40;99.90
9466;DHT22;4771;48.726;9.006;2024-03-06T05:11:00;7.40;99.90
9466;DHT22;4771;48.726;9.006;2024-03-06T05:13:29;7.40;99.90
9466;DHT22;4771;48.726;9.006;2024-03-06T05:15:56;7.40;99.90
9466;DHT22;4771;48.726;9.006;2024-03-06T05:18:23;7.40;99.90
9466;DHT22;4771;48.726;9.006;2024-03-06T05:20:49;7.40;99.90
9466;DHT22;4771;48.726;9.006;2024-03-06T05:23:16;7.40;99.90
9466;DHT22;4771;48.726;9.006;2024-03-06T05:25:43;7.40;99.90
9466;DHT22;4771;48.726;9.006;2024-03-06T05:28:10;7.40;99.90
9466;DHT22;4771;48.726;9.006;2024-03-06T05:30:38;7.40;99.90
9466;DHT22;4771;48.726;9.006;2024-03-06T05:33:05;7.40;99.90
9466;DHT22;4771;48.726;9.006;2024-03-06T05:35:32;7.40;99.90
9466;DHT22;4771;48.726;9.006;2024-03-06T05:37:59;7.40;99.90
9466;DHT22;4771;48.726;9.006;2024-03-06T05:40:26;7.40;99.90
9466;DHT22;4771;48.726;9.006;2024-03-06T05:42:52;7.40;99.90
9466;DHT22;4771;48.726;9.006;2024-03-06T05:45:19;7.40;99.90
9466;DHT22;4771;48.726;9.006;2024-03-06T05:47:48;7.40;99.90
9466;DHT22;4771;48.726;9.006;2024-03-06T05:50:15;7.40;99.90
9466;DHT22;4771;48.726;9.006;2024-03-06T05:52:42;7.40;99.90
9466;DHT22;4771;48.726;9.006;2024-03-06T05:55:09;7.40;99.90
9466;DHT22;4771;48.726;9.006;2024-03-06T05:57:36;7.40;99.90
9466;DHT22;4771;48.726;9.006;2024-03-06T06:00:04;7.40;99.90
9466;DHT22;4771;48.726;9.006;2024-03-06T06:02:36;7.40;99.90
9466;DHT22;4771;48.726;9.006;2024-03-06T06:05:06;7.30;99.90
9466;DHT22;4771;48.726;9.006;2024-03-06T06:07:33;7.30;99.90
9466;DHT22;4771;48.726;9.006;2024-03-06T06:10:00;7.30;99.90
9466;DHT22;4771;48.726;9.006;2024-03-06T06:12:27;7.30;99.90
9466;DHT22;4771;48.726;9.006;2024-03-06T06:14:54;7.30;99.90
9466;DHT22;4771;48.726;9.006;2024-03-06T06:17:21;7.30;99.90
9466;DHT22;4771;48.726;9.006;2024-03-06T06:19:48;7.20;99.90
9466;DHT22;4771;48.726;9.006;2024-03-06T06:22:16;7.20;99.90
9466;DHT22;4771;48.726;9.006;2024-03-06T06:24:43;7.20;99.90
9466;DHT22;4771;48.726;9.006;2024-03-06T06:27:11;7.50;99.90
9466;DHT22;4771;48.726;9.006;2024-03-06T06:29:38;7.20;99.90
9466;DHT22;4771;48.726;9.006;2024-03-06T06:32:05;7.20;99.90
9466;DHT22;4771;48.726;9.006;2024-03-06T06:34:31;7.10;99.90
9466;DHT22;4771;48.726;9.006;2024-03-06T06:36:58;7.00;99.90
9466;DHT22;4771;48.726;9.006;2024-03-06T06:39:26;7.00;99.90
9466;DHT22;4771;48.726;9.006;2024-03-06T06:41:53;7.00;99.90
9466;DHT22;4771;48.726;9.006;2024-03-06T06:44:23;7.10;99.90
9466;DHT22;4771;48.726;9.006;2024-03-06T06:46:50;7.60;99.90
9466;DHT22;4771;48.726;9.006;2024-03-06T06:49:16;7.20;99.90
9466;DHT22;4771;48.726;9.006;2024-03-06T06:51:44;7.20;99.90
9466;DHT22;4771;48.726;9.006;2024-03-06T06:54:11;7.20;99.90
9466;DHT22;4771;48.726;9.006;2024-03-06T06:56:40;7.20;99.90
9466;DHT22;4771;48.726;9.006;2024-03-06T06:59:06;7.20;99.90
9466;DHT22;4771;48.726;9.006;2024-03-06T07:01:33;7.30;99.90
9466;DHT22;4771;48.726;9.006;2024-03-06T07:04:01;7.30;99.90
9466;DHT22;4771;48.726;9.006;2024-03-06T07:06:28;7.30;99.90
9466;DHT22;4771;48.726;9.006;2024-03-06T07:08:55;7.40;99.90
9466;DHT22;4771;48.726;9.006;2024-03-06T07:11:22;7.40;99.90
9466;DHT22;4771;48.726;9.006;2024-03-06T07:13:51;7.40;99.90
9466;DHT22;4771;48.726;9.006;2024-03-06T07:16:17;7.50;99.90
9466;DHT22;4771;48.726;9.006;2024-03-06T07:18:44;7.50;99.90
9466;DHT22;4771;48.726;9.006;2024-03-06T07:21:12;7.50;99.90
9466;DHT22;4771;48.726;9.006;2024-03-06T07:23:39;7.50;99.90
9466;DHT22;4771;48.726;9.006;2024-03-06T07:26:05;7.50;99.90
9466;DHT22;4771;48.726;9.006;2024-03-06T07:28:32;7.50;99.90
9466;DHT22;4771;48.726;9.006;2024-03-06T07:31:01;7.50;99.90
9466;DHT22;4771;48.726;9.006;2024-03-06T07:33:28;7.50;99.90
9466;DHT22;4771;48.726;9.006;2024-03-06T07:35:56;7.50;99.90
9466;DHT22;4771;48.726;9.006;2024-03-06T07:38:23;7.50;99.90
9466;DHT22;4771;48.726;9.006;2024-03-06T07:40:50;7.50;99.90
9466;DHT22;4771;48.726;9.006;2024-03-06T07:43:17;7.50;99.90
9466;DHT22;4771;48.726;9.006;2024-03-06T07:45:44;7.50;99.90
9466;DHT22;4771;48.726;9.006;2024-03-06T07:48:14;7.50;99.90
9466;DHT22;4771;48.726;9.006;2024-03-06T07:50:41;7.50;99.90
9466;DHT22;4771;48.726;9.006;2024-03-06T07:53:08;7.50;99.90
9466;DHT22;4771;48.726;9.006;2024-03-06T07:55:35;7.60;99.90
9466;DHT22;4771;48.726;9.006;2024-03-06T07:58:02;7.60;99.90
9466;DHT22;4771;48.726;9.006;2024-03-06T08:00:28;7.60;99.90
9466;DHT22;4771;48.726;9.006;2024-03-06T08:02:56;7.70;99.90
9466;DHT22;4771;48.726;9.006;2024-03-06T08:05:25;7.70;99.90
9466;DHT22;4771;48.726;9.006;2024-03-06T08:07:52;7.70;99.90
9466;DHT22;4771;48.726;9.006;2024-03-06T08:10:19;7.70;99.90
9466;DHT22;4771;48.726;9.006;2024-03-06T08:12:46;7.80;99.90
9466;DHT22;4771;48.726;9.006;2024-03-06T08:15:14;7.70;99.90
9466;DHT22;4771;48.726;9.006;2024-03-06T08:17:42;7.70;99.90
9466;DHT22;4771;48.726;9.006;2024-03-06T08:20:10;7.70;99.90
9466;DHT22;4771;48.726;9.006;2024-03-06T08:22:40;7.80;99.90
9466;DHT22;4771;48.726;9.006;2024-03-06T08:25:08;7.80;99.90
9466;DHT22;4771;48.726;9.006;2024-03-06T08:27:36;7.80;99.90
9466;DHT22;4771;48.726;9.006;2024-03-06T08:30:03;7.80;99.90
9466;DHT22;4771;48.726;9.006;2024-03-06T08:32:31;7.80;99.90
9466;DHT22;4771;48.726;9.006;2024-03-06T08:34:58;7.80;99.90
9466;DHT22;4771;48.726;9.006;2024-03-06T08:37:25;7.80;99.90
9466;DHT22;4771;48.726;9.006;2024-03-06T08:39:53;7.90;99.90
9466;DHT22;4771;48.726;9.006;2024-03-06T08:42:20;7.90;99.90
9466;DHT22;4771;48.726;9.006;2024-03-06T08:44:47;7.90;99.90
9466;DHT22;4771;48.726;9.006;2024-03-06T08:47:15;7.90;99.90
9466;DHT22;4771;48.726;9.006;2024-03-06T08:49:41;7.80;99.90
9466;DHT22;4771;48.726;9.006;2024-03-06T08:52:08;7.80;99.90
9466;DHT22;4771;48.726;9.006;2024-03-06T08:54:36;7.80;99.90
9466;DHT22;4771;48.726;9.006;2024-03-06T08:57:04;7.80;99.90
9466;DHT22;4771;48.726;9.006;2024-03-06T08:59:32;7.80;99.90
9466;DHT22;4771;48.726;9.006;2024-03-06T09:01:58;7.90;99.90
9466;DHT22;4771;48.726;9.006;2024-03-06T09:04:38;7.80;99.90
9466;DHT22;4771;48.726;9.006;2024-03-06T09:07:04;7.80;99.90
9466;DHT22;4771;48.726;9.006;2024-03-06T09:09:31;7.90;99.90
9466;DHT22;4771;48.726;9.006;2024-03-06T09:11:59;7.90;99.90
9466;DHT22;4771;48.726;9.006;2024-03-06T09:14:27;8.20;99.90
9466;DHT22;4771;48.726;9.006;2024-03-06T09:16:54;7.80;99.90
9466;DHT22;4771;48.726;9.006;2024-03-06T09:19:21;7.90;99.90
9466;DHT22;4771;48.726;9.006;2024-03-06T09:21:48;7.90;99.90
9466;DHT22;4771;48.726;9.006;2024-03-06T09:24:15;7.80;99.90
9466;DHT22;4771;48.726;9.006;2024-03-06T09:26:43;7.80;99.90
9466;DHT22;4771;48.726;9.006;2024-03-06T09:29:09;7.80;99.90
9466;DHT22;4771;48.726;9.006;2024-03-06T09:31:38;7.80;99.90
9466;DHT22;4771;48.726;9.006;2024-03-06T09:34:05;7.80;99.90
9466;DHT22;4771;48.726;9.006;2024-03-06T09:36:31;7.80;99.90
9466;DHT22;4771;48.726;9.006;2024-03-06T09:38:59;7.80;99.90
9466;DHT22;4771;48.726;9.006;2024-03-06T09:41:26;7.70;99.90
9466;DHT22;4771;48.726;9.006;2024-03-06T09:43:52;7.70;99.90
9466;DHT22;4771;48.726;9.006;2024-03-06T09:46:20;7.70;99.90
9466;DHT22;4771;48.726;9.006;2024-03-06T09:48:49;7.80;99.90
9466;DHT22;4771;48.726;9.006;2024-03-06T09:51:18;7.80;99.90
9466;DHT22;4771;48.726;9.006;2024-03-06T09:53:46;7.80;99.90
9466;DHT22;4771;48.726;9.006;2024-03-06T09:56:15;7.80;99.90
9466;DHT22;4771;48.726;9.006;2024-03-06T09:58:42;7.90;99.90
9466;DHT22;4771;48.726;9.006;2024-03-06T10:01:09;7.90;99.90
9466;DHT22;4771;48.726;9.006;2024-03-06T10:03:37;7.80;99.90
9466;DHT22;4771;48.726;9.006;2024-03-06T10:06:08;7.80;99.90
9466;DHT22;4771;48.726;9.006;2024-03-06T10:08:35;7.80;99.90
9466;DHT22;4771;48.726;9.006;2024-03-06T10:11:03;7.80;99.90
9466;DHT22;4771;48.726;9.006;2024-03-06T10:13:31;7.80;99.90
9466;DHT22;4771;48.726;9.006;2024-03-06T10:15:59;7.90;99.90
9466;DHT22;4771;48.726;9.006;2024-03-06T10:18:27;7.90;99.90
9466;DHT22;4771;48.726;9.006;2024-03-06T10:20:54;7.90;99.90
9466;DHT22;4771;48.726;9.006;2024-03-06T10:23:23;7.80;99.90
9466;DHT22;4771;48.726;9.006;2024-03-06T10:25:50;7.90;99.90
9466;DHT22;4771;48.726;9.006;2024-03-06T10:28:21;7.90;99.90
9466;DHT22;4771;48.726;9.006;2024-03-06T10:30:49;7.90;99.90
9466;DHT22;4771;48.726;9.006;2024-03-06T10:33:18;7.90;99.90
9466;DHT22;4771;48.726;9.006;2024-03-06T10:35:46;7.90;99.90
9466;DHT22;4771;48.726;9.006;2024-03-06T10:38:14;8.00;99.90
9466;DHT22;4771;48.726;9.006;2024-03-06T10:40:43;8.10;99.90
9466;DHT22;4771;48.726;9.006;2024-03-06T10:43:11;8.00;99.90
9466;DHT22;4771;48.726;9.006;2024-03-06T10:45:47;8.00;99.90
9466;DHT22;4771;48.726;9.006;2024-03-06T10:48:16;8.00;99.90
9466;DHT22;4771;48.726;9.006;2024-03-06T10:50:44;8.00;99.90
9466;DHT22;4771;48.726;9.006;2024-03-06T10:53:13;8.10;99.90
9466;DHT22;4771;48.726;9.006;2024-03-06T10:55:43;8.10;99.90
9466;DHT22;4771;48.726;9.006;2024-03-06T10:58:11;8.00;99.90
9466;DHT22;4771;48.726;9.006;2024-03-06T11:00:39;8.00;99.90
9466;DHT22;4771;48.726;9.006;2024-03-06T11:03:07;7.90;99.90
9466;DHT22;4771;48.726;9.006;2024-03-06T11:05:35;7.60;99.90
9466;DHT22;4771;48.726;9.006;2024-03-06T11:08:05;7.60;99.90
9466;DHT22;4771;48.726;9.006;2024-03-06T11:10:33;7.60;99.90
9466;DHT22;4771;48.726;9.006;2024-03-06T11:13:02;7.70;99.90
9466;DHT22;4771;48.726;9.006;2024-03-06T11:15:30;7.70;99.90
9466;DHT22;4771;48.726;9.006;2024-03-06T11:17:57;7.70;99.90
9466;DHT22;4771;48.726;9.006;2024-03-06T11:20:24;7.80;99.90
9466;DHT22;4771;48.726;9.006;2024-03-06T11:23:07;7.80;99.90
9466;DHT22;4771;48.726;9.006;2024-03-06T11:26:10;7.80;99.90
9466;DHT22;4771;48.726;9.006;2024-03-06T11:28:39;7.90;99.90
9466;DHT22;4771;48.726;9.006;2024-03-06T11:31:09;7.90;99.90
9466;DHT22;4771;48.726;9.006;2024-03-06T11:33:40;8.00;99.90
9466;DHT22;4771;48.726;9.006;2024-03-06T11:36:15;8.00;99.90
9466;DHT22;4771;48.726;9.006;2024-03-06T11:38:42;8.00;99.90
9466;DHT22;4771;48.726;9.006;2024-03-06T11:41:09;8.00;99.90
9466;DHT22;4771;48.726;9.006;2024-03-06T11:43:43;8.10;99.90
9466;DHT22;4771;48.726;9.006;2024-03-06T11:46:17;8.10;99.90
9466;DHT22;4771;48.726;9.006;2024-03-06T11:48:51;8.10;99.90
9466;DHT22;4771;48.726;9.006;2024-03-06T11:51:18;8.10;99.90
9466;DHT22;4771;48.726;9.006;2024-03-06T11:53:46;8.00;99.90
9466;DHT22;4771;48.726;9.006;2024-03-06T11:56:16;7.90;99.90
9466;DHT22;4771;48.726;9.006;2024-03-06T11:58:45;7.90;99.90
9466;DHT22;4771;48.726;9.006;2024-03-06T12:01:12;8.00;99.90
9466;DHT22;4771;48.726;9.006;2024-03-06T12:03:39;7.90;99.90
9466;DHT22;4771;48.726;9.006;2024-03-06T12:06:07;8.00;99.90
9466;DHT22;4771;48.726;9.006;2024-03-06T12:08:34;8.00;99.90
9466;DHT22;4771;48.726;9.006;2024-03-06T12:11:02;8.00;99.90
9466;DHT22;4771;48.726;9.006;2024-03-06T12:13:30;8.00;99.90
9466;DHT22;4771;48.726;9.006;2024-03-06T12:15:58;8.00;99.90
9466;DHT22;4771;48.726;9.006;2024-03-06T12:18:25;8.00;99.90
9466;DHT22;4771;48.726;9.006;2024-03-06T12:20:52;7.90;99.90
9466;DHT22;4771;48.726;9.006;2024-03-06T12:23:20;7.90;99.90
9466;DHT22;4771;48.726;9.006;2024-03-06T12:26:02;7.90;99.90
9466;DHT22;4771;48.726;9.006;2024-03-06T12:28:30;7.90;99.90
9466;DHT22;4771;48.726;9.006;2024-03-06T12:30:58;7.90;99.90
9466;DHT22;4771;48.726;9.006;2024-03-06T12:33:28;7.80;99.90
9466;DHT22;4771;48.726;9.006;2024-03-06T12:36:02;7.80;99.90
9466;DHT22;4771;48.726;9.006;2024-03-06T12:38:30;7.80;99.90
9466;DHT22;4771;48.726;9.006;2024-03-06T12:40:57;7.70;99.90
9466;DHT22;4771;48.726;9.006;2024-03-06T12:43:24;7.80;99.90
9466;DHT22;4771;48.726;9.006;2024-03-06T12:45:52;7.80;99.90
9466;DHT22;4771;48.726;9.006;2024-03-06T12:48:21;7.80;99.90
9466;DHT22;4771;48.726;9.006;2024-03-06T12:50:48;7.90;99.90
9466;DHT22;4771;48.726;9.006;2024-03-06T12:53:18;7.90;99.90
9466;DHT22;4771;48.726;9.006;2024-03-06T12:55:45;8.50;99.90
9466;DHT22;4771;48.726;9.006;2024-03-06T12:58:12;7.70;99.90
9466;DHT22;4771;48.726;9.006;2024-03-06T13:00:39;7.80;99.90
9466;DHT22;4771;48.726;9.006;2024-03-06T13:03:06;7.80;99.90
9466;DHT22;4771;48.726;9.006;2024-03-06T13:05:35;7.90;99.90
9466;DHT22;4771;48.726;9.006;2024-03-06T13:08:02;7.90;99.90
9466;DHT22;4771;48.726;9.006;2024-03-06T13:10:29;7.80;99.90
9466;DHT22;4771;48.726;9.006;2024-03-06T13:12:56;7.90;99.90
9466;DHT22;4771;48.726;9.006;2024-03-06T13:15:23;7.90;99.90
9466;DHT22;4771;48.726;9.006;2024-03-06T13:17:50;7.90;99.90
9466;DHT22;4771;48.726;9.006;2024-03-06T13:20:17;7.90;99.90
9466;DHT22;4771;48.726;9.006;2024-03-06T13:22:46;7.90;99.90
9466;DHT22;4771;48.726;9.006;2024-03-06T13:25:13;7.90;99.90
9466;DHT22;4771;48.726;9.006;2024-03-06T13:27:39;7.90;99.90
9466;DHT22;4771;48.726;9.006;2024-03-06T13:30:09;8.00;99.90
9466;DHT22;4771;48.726;9.006;2024-03-06T13:32:37;7.90;99.90
9466;DHT22;4771;48.726;9.006;2024-03-06T13:35:05;7.90;99.90
9466;DHT22;4771;48.726;9.006;2024-03-06T13:37:35;7.90;99.90
9466;DHT22;4771;48.726;9.006;2024-03-06T13:40:03;8.00;99.90
9466;DHT22;4771;48.726;9.006;2024-03-06T13:42:32;8.00;99.90
9466;DHT22;4771;48.726;9.006;2024-03-06T13:44:59;8.00;99.90
9466;DHT22;4771;48.726;9.006;2024-03-06T13:47:30;8.00;99.90
9466;DHT22;4771;48.726;9.006;2024-03-06T13:49:57;8.10;99.90
9466;DHT22;4771;48.726;9.006;2024-03-06T13:52:24;8.10;99.90
9466;DHT22;4771;48.726;9.006;2024-03-06T13:54:51;8.10;99.90
9466;DHT22;4771;48.726;9.006;2024-03-06T13:57:19;8.10;99.90
9466;DHT22;4771;48.726;9.006;2024-03-06T13:59:46;8.00;99.90
9466;DHT22;4771;48.726;9.006;2024-03-06T14:02:13;8.00;99.90
9466;DHT22;4771;48.726;9.006;2024-03-06T14:04:40;8.00;99.90
9466;DHT22;4771;48.726;9.006;2024-03-06T14:07:07;8.00;99.90
9466;DHT22;4771;48.726;9.006;2024-03-06T14:09:34;7.90;99.90
9466;DHT22;4771;48.726;9.006;2024-03-06T14:12:01;8.00;99.90
9466;DHT22;4771;48.726;9.006;2024-03-06T14:14:29;7.90;99.90
9466;DHT22;4771;48.726;9.006;2024-03-06T14:16:56;7.90;99.90
9466;DHT22;4771;48.726;9.006;2024-03-06T14:19:23;7.90;99.90
9466;DHT22;4771;48.726;9.006;2024-03-06T14:21:50;7.90;99.90
9466;DHT22;4771;48.726;9.006;2024-03-06T14:24:17;8.00;99.90
9466;DHT22;4771;48.726;9.006;2024-03-06T14:26:46;8.00;99.90
9466;DHT22;4771;48.726;9.006;2024-03-06T14:29:14;8.00;99.90
9466;DHT22;4771;48.726;9.006;2024-03-06T14:31:43;8.00;99.90
9466;DHT22;4771;48.726;9.006;2024-03-06T14:34:09;8.10;99.90
9466;DHT22;4771;48.726;9.006;2024-03-06T14:36:36;8.10;99.90
9466;DHT22;4771;48.726;9.006;2024-03-06T14:39:03;8.10;99.90
9466;DHT22;4771;48.726;9.006;2024-03-06T14:41:30;8.10;99.90
9466;DHT22;4771;48.726;9.006;2024-03-06T14:43:57;8.10;99.90
9466;DHT22;4771;48.726;9.006;2024-03-06T14:46:24;8.10;99.90
9466;DHT22;4771;48.726;9.006;2024-03-06T14:48:52;8.10;99.90
9466;DHT22;4771;48.726;9.006;2024-03-06T14:51:20;8.20;99.90
9466;DHT22;4771;48.726;9.006;2024-03-06T14:53:47;8.20;99.90
9466;DHT22;4771;48.726;9.006;2024-03-06T14:56:13;8.10;99.90
9466;DHT22;4771;48.726;9.006;2024-03-06T14:58:40;8.20;99.90
9466;DHT22;4771;48.726;9.006;2024-03-06T15:01:08;8.20;99.90
9466;DHT22;4771;48.726;9.006;2024-03-06T15:03:34;8.30;99.90
9466;DHT22;4771;48.726;9.006;2024-03-06T15:06:03;8.60;99.90
9466;DHT22;4771;48.726;9.006;2024-03-06T15:08:31;8.20;99.90
9466;DHT22;4771;48.726;9.006;2024-03-06T15:10:58;8.20;99.90
9466;DHT22;4771;48.726;9.006;2024-03-06T15:13:25;8.10;99.90
9466;DHT22;4771;48.726;9.006;2024-03-06T15:15:51;8.10;99.90
9466;DHT22;4771;48.726;9.006;2024-03-06T15:18:18;8.10;99.90
9466;DHT22;4771;48.726;9.006;2024-03-06T15:20:45;8.10;99.90
9466;DHT22;4771;48.726;9.006;2024-03-06T15:23:14;8.10;99.90
9466;DHT22;4771;48.726;9.006;2024-03-06T15:25:41;8.10;99.90
9466;DHT22;4771;48.726;9.006;2024-03-06T15:28:09;8.10;99.90
9466;DHT22;4771;48.726;9.006;2024-03-06T15:30:36;8.00;99.90
9466;DHT22;4771;48.726;9.006;2024-03-06T15:33:04;8.10;99.90
9466;DHT22;4771;48.726;9.006;2024-03-06T15:35:31;8.10;99.90
9466;DHT22;4771;48.726;9.006;2024-03-06T15:37:59;8.10;99.90
9466;DHT22;4771;48.726;9.006;2024-03-06T15:40:27;8.10;99.90
9466;DHT22;4771;48.726;9.006;2024-03-06T15:42:54;8.10;99.90
9466;DHT22;4771;48.726;9.006;2024-03-06T15:45:22;8.00;99.90
9466;DHT22;4771;48.726;9.006;2024-03-06T15:47:49;8.00;99.90
9466;DHT22;4771;48.726;9.006;2024-03-06T15:50:15;8.00;99.90
9466;DHT22;4771;48.726;9.006;2024-03-06T15:52:42;8.10;99.90
9466;DHT22;4771;48.726;9.006;2024-03-06T15:55:10;8.10;99.90
9466;DHT22;4771;48.726;9.006;2024-03-06T15:57:38;8.10;99.90
9466;DHT22;4771;48.726;9.006;2024-03-06T16:00:07;8.10;99.90
9466;DHT22;4771;48.726;9.006;2024-03-06T16:02:38;8.10;99.90
9466;DHT22;4771;48.726;9.006;2024-03-06T16:05:07;8.20;99.90
9466;DHT22;4771;48.726;9.006;2024-03-06T16:07:34;8.20;99.90
9466;DHT22;4771;48.726;9.006;2024-03-06T16:10:01;8.20;99.90
9466;DHT22;4771;48.726;9.006;2024-03-06T16:12:28;8.20;99.90
9466;DHT22;4771;48.726;9.006;2024-03-06T16:14:56;8.20;99.90
9466;DHT22;4771;48.726;9.006;2024-03-06T16:17:23;8.20;99.90
9466;DHT22;4771;48.726;9.006;2024-03-06T16:19:50;8.20;99.90